Time;durP1;ratioP1;P1;durP2;ratioP2;P2;SDS_P1;SDS_P2;PMS_P1;PMS_P2;Temp;Humidity;BMP_temperature;BMP_pressure;BME280_temperature;BME280_humidity;BME280_pressure;Samples;Min_cycle;Max_cycle;Signal;HPM_P1;HPM_P2
2021/12/15 00:01:53;;;;;;;22.17;14.73;;;;;;;7.84;75.55;102246.13;4149337;28;20503;-58
2021/12/15 00:03:57;;;;;;;18.90;13.50;;;;;;;7.95;75.33;102247.59;4147986;28;20041;-59
2021/12/15 00:06:02;;;;;;;20.73;14.55;;;;;;;8.03;74.79;102243.72;4150053;28;20058;-57
2021/12/15 00:08:07;;;;;;;19.25;13.68;;;;;;;8.11;74.73;102235.47;4151379;28;20048;-59
2021/12/15 00:10:11;;;;;;;19.83;12.57;;;;;;;8.17;74.30;102231.50;4151578;28;20051;-59
2021/12/15 00:12:15;;;;;;;17.33;12.30;;;;;;;8.20;74.54;102226.47;4148300;28;20044;-60
2021/12/15 00:14:20;;;;;;;17.40;12.55;;;;;;;8.22;74.36;102229.16;4161693;28;20507;-61
2021/12/15 00:16:23;;;;;;;;;;;;;;;8.06;74.58;102236.91;4154701;28;20041;-59
2021/12/15 00:18:26;;;;;;;19.58;12.88;;;;;;;8.13;74.60;102244.22;4146847;28;19922;-61
2021/12/15 00:20:31;;;;;;;18.70;12.80;;;;;;;8.15;74.40;102237.44;4147243;28;20042;-62
2021/12/15 00:22:35;;;;;;;17.80;12.90;;;;;;;8.13;74.25;102245.13;4148379;28;20125;-58
2021/12/15 00:24:39;;;;;;;17.88;12.75;;;;;;;8.16;74.65;102244.38;4152771;28;20518;-59
2021/12/15 00:26:42;;;;;;;17.85;12.70;;;;;;;8.21;74.19;102238.63;4161333;28;20068;-58
2021/12/15 00:28:46;;;;;;;18.45;12.93;;;;;;;8.27;74.09;102240.66;4161638;28;20509;-59
2021/12/15 00:30:50;;;;;;;17.63;12.70;;;;;;;8.33;73.87;102243.56;4146946;28;20481;-59
2021/12/15 00:32:54;;;;;;;18.38;12.65;;;;;;;8.36;73.41;102245.41;4148352;28;20046;-57
2021/12/15 00:34:58;;;;;;;17.58;12.45;;;;;;;8.35;73.45;102247.13;4159601;28;20070;-60
2021/12/15 00:37:01;;;;;;;20.10;13.70;;;;;;;8.36;73.53;102238.53;4152635;28;20038;-58
2021/12/15 00:39:07;;;;;;;17.80;11.50;;;;;;;8.39;73.34;102237.81;4129641;28;20586;-58
2021/12/15 00:41:11;;;;;;;15.05;11.32;;;;;;;8.38;73.64;102244.69;4145344;28;20033;-58
2021/12/15 00:43:15;;;;;;;16.50;11.82;;;;;;;8.38;73.24;102236.91;4147970;28;20045;-59
2021/12/15 00:45:18;;;;;;;18.20;11.73;;;;;;;8.37;73.59;102240.31;4147283;28;20046;-59
2021/12/15 00:47:22;;;;;;;18.58;11.50;;;;;;;8.34;73.67;102240.16;4147203;28;20034;-58
2021/12/15 00:49:26;;;;;;;15.18;12.23;;;;;;;8.32;73.57;102240.88;4148288;28;20045;-58
2021/12/15 00:51:29;;;;;;;16.58;11.90;;;;;;;8.33;73.69;102242.69;4148319;28;20042;-58
2021/12/15 00:53:33;;;;;;;18.05;12.57;;;;;;;8.37;73.46;102242.91;4133192;28;20042;-56
2021/12/15 00:55:39;;;;;;;16.57;12.27;;;;;;;8.39;73.33;102243.88;4149798;28;20088;-60
2021/12/15 00:57:42;;;;;;;16.35;12.02;;;;;;;8.38;73.27;102243.78;4152378;28;20056;-60
2021/12/15 00:59:45;;;;;;;18.05;12.80;;;;;;;8.38;73.50;102247.28;4129939;28;20135;-58
2021/12/15 01:01:51;;;;;;;16.00;11.95;;;;;;;8.42;73.53;102239.66;4149031;28;20099;-59
2021/12/15 01:03:55;;;;;;;15.85;11.95;;;;;;;8.37;73.38;102235.13;4148661;28;20519;-60
2021/12/15 01:06:05;;;;;;;15.75;11.52;;;;;;;8.32;73.87;102240.88;4147694;28;20038;-59
2021/12/15 01:08:16;;;;;;;15.43;11.98;;;;;;;8.29;73.73;102244.19;4150112;28;20037;-61
2021/12/15 01:10:28;;;;;;;14.90;12.32;;;;;;;8.27;73.97;102245.84;4143641;28;20149;-59
2021/12/15 01:12:50;;;;;;;17.80;11.73;;;;;;;8.26;73.67;102240.56;4131430;28;20434;-60
2021/12/15 01:19:53;;;;;;;16.25;11.60;;;;;;;8.34;73.71;102241.88;4094205;28;20047;-59
2021/12/15 01:21:57;;;;;;;17.75;11.63;;;;;;;8.33;73.49;102238.38;4109036;28;20062;-57
2021/12/15 01:24:01;;;;;;;14.73;11.57;;;;;;;8.36;73.53;102246.31;4130082;28;20050;-61
2021/12/15 01:26:07;;;;;;;15.60;11.43;;;;;;;8.38;73.52;102242.09;4144258;28;20037;-59
2021/12/15 01:28:12;;;;;;;15.50;10.50;;;;;;;8.38;73.29;102248.97;4138559;28;20038;-58
2021/12/15 01:30:20;;;;;;;14.75;10.63;;;;;;;8.41;73.41;102261.19;4155550;28;20087;-60
2021/12/15 01:32:23;;;;;;;14.07;10.27;;;;;;;8.41;73.51;102263.78;4144773;28;20590;-58
2021/12/15 01:34:26;;;;;;;13.63;10.20;;;;;;;8.38;73.64;102264.53;4134024;28;20038;-59
2021/12/15 01:36:30;;;;;;;14.45;10.90;;;;;;;8.36;73.74;102264.44;4148768;28;20053;-59
2021/12/15 01:38:37;;;;;;;14.75;10.02;;;;;;;8.37;73.83;102265.34;4146988;28;20033;-60
2021/12/15 01:40:44;;;;;;;12.45;9.38;;;;;;;8.38;73.74;102262.84;4136742;28;20076;-58
2021/12/15 01:42:47;;;;;;;12.70;9.25;;;;;;;8.41;73.37;102256.94;4144639;28;20070;-59
2021/12/15 01:47:13;;;;;;;13.15;8.68;;;;;;;8.41;73.25;102269.91;4128558;28;20038;-58
2021/12/15 01:49:19;;;;;;;13.23;8.80;;;;;;;8.42;73.17;102263.88;4130279;28;20105;-59
2021/12/15 01:51:23;;;;;;;10.85;8.07;;;;;;;8.44;72.95;102263.94;4146203;28;20042;-59
2021/12/15 01:53:26;;;;;;;13.00;8.63;;;;;;;8.44;73.22;102261.38;4129966;28;20501;-59
2021/12/15 01:55:30;;;;;;;10.90;8.23;;;;;;;8.44;73.07;102262.31;4144338;28;20515;-59
2021/12/15 01:57:34;;;;;;;10.55;8.15;;;;;;;8.42;73.05;102260.41;4146879;28;20049;-58
2021/12/15 01:59:38;;;;;;;10.90;7.35;;;;;;;8.36;73.40;102254.06;4146682;28;20041;-58
2021/12/15 02:01:43;;;;;;;10.18;7.43;;;;;;;8.35;73.49;102246.22;4145691;28;20054;-58
2021/12/15 02:03:47;;;;;;;10.93;8.15;;;;;;;8.36;73.54;102251.47;4147050;28;20503;-60
2021/12/15 02:06:11;;;;;;;10.82;7.80;;;;;;;8.33;73.17;102255.63;4147053;28;20041;-59
2021/12/15 02:08:15;;;;;;;10.95;6.88;;;;;;;8.35;73.12;102259.19;4146865;28;20041;-59
2021/12/15 02:10:21;;;;;;;9.63;7.00;;;;;;;8.29;73.60;102258.88;4129594;28;20049;-58
2021/12/15 02:12:36;;;;;;;9.80;7.38;;;;;;;8.33;73.62;102253.03;4146527;28;20042;-59
2021/12/15 02:14:40;;;;;;;9.23;6.78;;;;;;;8.35;73.38;102256.59;4132168;28;20104;-59
2021/12/15 02:16:45;;;;;;;11.20;8.13;;;;;;;8.33;73.56;102247.84;4129442;28;20050;-61
2021/12/15 02:18:48;;;;;;;;;;;;;;;8.17;73.99;102251.34;4127916;28;20553;-59
2021/12/15 02:20:56;;;;;;;10.52;7.30;;;;;;;8.28;73.79;102260.56;4145235;28;19928;-59
2021/12/15 02:23:00;;;;;;;8.65;6.15;;;;;;;8.32;73.63;102251.25;4125383;28;20553;-59
2021/12/15 02:25:07;;;;;;;9.30;6.75;;;;;;;8.38;73.25;102255.06;4154292;28;20125;-59
2021/12/15 02:27:13;;;;;;;9.45;6.88;;;;;;;8.40;73.34;102257.72;4131053;28;20554;-60
2021/12/15 02:29:19;;;;;;;8.65;6.53;;;;;;;8.38;73.55;102260.25;4129665;28;20054;-60
2021/12/15 02:31:37;;;;;;;8.82;6.38;;;;;;;8.43;73.28;102259.59;4148030;28;21293;-60
2021/12/15 02:33:58;;;;;;;7.80;5.72;;;;;;;8.44;73.08;102262.31;4128324;28;20050;-59
2021/12/15 02:38:28;;;;;;;8.75;5.95;;;;;;;8.42;73.32;102265.59;4128881;28;20042;-59
2021/12/15 02:40:32;;;;;;;9.45;6.40;;;;;;;8.42;73.08;102268.19;4128447;28;20081;-59
2021/12/15 02:42:40;;;;;;;7.85;5.78;;;;;;;8.40;73.08;102268.09;4127618;28;20470;-58
2021/12/15 02:44:45;;;;;;;7.63;5.38;;;;;;;8.44;73.20;102261.38;4145641;28;20065;-58
2021/12/15 02:46:50;;;;;;;7.22;5.22;;;;;;;8.50;73.09;102272.09;4140274;28;20096;-60
2021/12/15 02:48:54;;;;;;;6.43;4.75;;;;;;;8.55;72.71;102265.44;4159901;28;20091;-61
2021/12/15 02:50:58;;;;;;;6.95;4.68;;;;;;;8.57;72.63;102276.75;4147489;28;20394;-58
2021/12/15 02:53:03;;;;;;;5.90;4.22;;;;;;;8.55;72.75;102270.63;4145611;28;20052;-59
2021/12/15 02:55:08;;;;;;;6.38;4.43;;;;;;;8.57;72.59;102276.75;4145988;28;20107;-59
2021/12/15 02:57:12;;;;;;;6.97;4.72;;;;;;;8.54;72.35;102274.03;4145410;28;20045;-60
2021/12/15 02:59:17;;;;;;;6.32;4.15;;;;;;;8.56;72.55;102273.28;4145227;28;20125;-61
2021/12/15 03:01:31;;;;;;;6.43;3.85;;;;;;;8.62;72.47;102279.63;4146012;28;20089;-59
2021/12/15 03:06:03;;;;;;;5.85;3.83;;;;;;;8.67;72.05;102281.66;4144946;28;20301;-59
2021/12/15 03:08:11;;;;;;;4.65;3.63;;;;;;;8.63;72.10;102271.94;4141174;28;20534;-63
2021/12/15 03:17:11;;;;;;;5.18;3.47;;;;;;;8.67;71.89;102258.31;4145008;28;20070;-61
2021/12/15 03:19:14;;;;;;;3.90;2.95;;;;;;;8.65;72.03;102270.28;4145442;28;20181;-61
2021/12/15 03:21:22;;;;;;;5.18;3.53;;;;;;;8.60;72.34;102269.19;4145548;28;20042;-58
2021/12/15 03:23:31;;;;;;;4.43;3.13;;;;;;;8.56;72.31;102275.00;4149408;28;20037;-59
2021/12/15 03:25:34;;;;;;;4.35;3.17;;;;;;;8.53;72.41;102272.25;4148992;28;20041;-62
2021/12/15 03:35:02;;;;;;;4.30;3.10;;;;;;;8.50;72.55;102278.16;4148465;28;20139;-59
2021/12/15 03:37:23;;;;;;;5.07;3.33;;;;;;;8.57;72.71;102274.19;4147946;28;20053;-58
2021/12/15 03:39:30;;;;;;;4.32;3.10;;;;;;;8.57;72.30;102274.19;4145686;28;20045;-62
2021/12/15 03:41:33;;;;;;;4.22;3.00;;;;;;;8.59;72.39;102272.56;4148913;28;20624;-60
2021/12/15 03:43:38;;;;;;;5.50;3.60;;;;;;;8.62;72.47;102277.91;4148516;28;20061;-59
2021/12/15 03:45:47;;;;;;;4.63;3.08;;;;;;;8.61;72.44;102276.13;4147490;28;20046;-58
2021/12/15 03:47:51;;;;;;;5.05;3.45;;;;;;;8.65;72.11;102277.19;4141090;28;20046;-61
2021/12/15 03:49:56;;;;;;;5.38;3.45;;;;;;;8.64;72.42;102271.09;4146407;28;20129;-59
2021/12/15 03:51:59;;;;;;;5.30;3.50;;;;;;;8.66;72.46;102273.75;4148848;28;20049;-58
2021/12/15 03:54:03;;;;;;;4.95;3.58;;;;;;;8.67;72.32;102275.53;4130039;28;20062;-58
2021/12/15 03:56:10;;;;;;;4.75;3.20;;;;;;;8.64;72.22;102276.28;4148389;28;20049;-59
2021/12/15 03:58:15;;;;;;;5.32;3.90;;;;;;;8.68;72.24;102269.56;4148167;28;20044;-60
2021/12/15 04:00:19;;;;;;;4.53;3.03;;;;;;;8.68;72.13;102278.22;4148058;28;20042;-63
2021/12/15 04:02:22;;;;;;;5.85;3.90;;;;;;;8.61;72.59;102280.44;4148251;28;20053;-60
2021/12/15 04:04:26;;;;;;;4.72;3.38;;;;;;;8.59;72.55;102276.88;4146134;28;20096;-62
2021/12/15 04:06:32;;;;;;;5.25;3.58;;;;;;;8.63;72.52;102278.78;4150351;28;20050;-59
2021/12/15 04:08:37;;;;;;;8.07;4.53;;;;;;;8.65;72.42;102278.06;4148909;28;20495;-62
2021/12/15 04:10:41;;;;;;;5.40;3.92;;;;;;;8.62;72.57;102280.50;4148751;28;20410;-62
2021/12/15 04:12:45;;;;;;;6.32;4.47;;;;;;;8.64;72.76;102280.56;4131837;28;20404;-62
2021/12/15 04:14:56;;;;;;;5.53;4.07;;;;;;;8.59;72.52;102275.16;4148724;28;20100;-62
2021/12/15 04:17:02;;;;;;;7.78;4.88;;;;;;;8.58;72.78;102275.09;4149561;28;20049;-60
2021/12/15 04:19:09;;;;;;;7.32;5.20;;;;;;;8.59;72.74;102277.75;4146772;28;20124;-59
2021/12/15 04:21:12;;;;;;;6.10;4.13;;;;;;;8.52;73.44;102278.25;4147280;28;20030;-60
2021/12/15 04:23:19;;;;;;;7.78;4.88;;;;;;;8.49;73.17;102278.97;4146072;28;20048;-59
2021/12/15 04:25:25;;;;;;;7.80;5.28;;;;;;;8.43;73.85;102281.22;4148970;28;20046;-60
2021/12/15 04:27:28;;;;;;;7.78;5.65;;;;;;;8.51;73.29;102284.22;4144741;28;20042;-58
2021/12/15 04:29:32;;;;;;;7.10;4.40;;;;;;;8.52;73.24;102286.03;4147298;28;20045;-61
2021/12/15 04:31:44;;;;;;;7.28;4.47;;;;;;;8.50;73.62;102282.47;4147563;28;20038;-58
2021/12/15 04:33:55;;;;;;;8.02;4.60;;;;;;;8.54;73.52;102281.78;4146294;28;20569;-60
2021/12/15 04:36:01;;;;;;;6.63;3.90;;;;;;;8.56;73.32;102283.66;4141407;28;20410;-60
2021/12/15 04:38:04;;;;;;;5.72;4.03;;;;;;;8.54;73.46;102282.72;4151185;28;20042;-57
2021/12/15 04:40:11;;;;;;;5.85;4.15;;;;;;;8.56;73.11;102285.38;4152808;28;20511;-58
2021/12/15 04:42:18;;;;;;;5.75;4.25;;;;;;;8.49;73.61;102285.88;4147558;28;20030;-58
2021/12/15 04:44:25;;;;;;;6.00;3.95;;;;;;;8.54;73.38;102289.56;4146327;28;20046;-61
2021/12/15 04:46:35;;;;;;;5.70;3.75;;;;;;;8.56;73.42;102282.78;4147644;28;20045;-59
2021/12/15 04:48:41;;;;;;;5.07;3.58;;;;;;;8.55;73.76;102284.47;4147042;28;20046;-59
2021/12/15 04:50:44;;;;;;;5.43;3.72;;;;;;;8.58;73.52;102288.94;4147179;28;20060;-60
2021/12/15 04:52:48;;;;;;;5.68;3.95;;;;;;;8.59;73.58;102284.66;4147956;28;20491;-61
2021/12/15 04:54:52;;;;;;;5.80;3.88;;;;;;;8.53;73.75;102283.50;4148362;28;20045;-59
2021/12/15 04:56:55;;;;;;;6.38;4.38;;;;;;;8.52;74.17;102286.03;4146714;28;20565;-60
2021/12/15 04:58:58;;;;;;;5.38;4.18;;;;;;;8.50;74.45;102285.94;4146406;28;20042;-58
2021/12/15 05:01:05;;;;;;;5.57;3.80;;;;;;;8.49;74.48;102285.88;4147977;28;20050;-59
2021/12/15 05:03:10;;;;;;;6.68;4.32;;;;;;;8.52;74.65;102288.63;4145441;28;20072;-59
2021/12/15 05:05:14;;;;;;;6.20;4.22;;;;;;;8.49;74.58;102285.88;4147187;28;20056;-62
2021/12/15 05:07:18;;;;;;;8.90;5.07;;;;;;;8.50;74.79;102287.66;4146224;28;20451;-59
2021/12/15 05:09:22;;;;;;;8.43;5.15;;;;;;;8.51;74.98;102294.59;4146524;28;20042;-58
2021/12/15 05:11:25;;;;;;;8.23;5.53;;;;;;;8.52;74.65;102291.22;4130608;28;20101;-60
2021/12/15 05:13:29;;;;;;;6.05;4.13;;;;;;;8.49;75.09;102291.94;4148481;28;20049;-62
2021/12/15 05:15:34;;;;;;;7.68;5.03;;;;;;;8.53;74.93;102287.81;4145207;28;20060;-62
2021/12/15 05:17:37;;;;;;;7.65;5.20;;;;;;;8.52;75.21;102291.22;4128109;28;20045;-58
2021/12/15 05:19:45;;;;;;;7.32;5.28;;;;;;;8.53;74.93;102287.81;4146731;28;20050;-61
2021/12/15 05:21:50;;;;;;;7.93;5.00;;;;;;;8.54;75.28;102289.56;4147082;28;20050;-61
2021/12/15 05:23:57;;;;;;;7.88;5.80;;;;;;;8.55;75.35;102286.19;4141680;28;20049;-60
2021/12/15 05:26:01;;;;;;;7.55;5.60;;;;;;;8.55;75.38;102291.38;4145390;28;20562;-61
2021/12/15 05:28:05;;;;;;;8.00;5.70;;;;;;;8.53;75.26;102288.69;4143774;28;20052;-61
2021/12/15 05:30:11;;;;;;;8.48;6.00;;;;;;;8.51;75.71;102294.59;4146117;28;20049;-59
2021/12/15 05:32:18;;;;;;;12.45;6.55;;;;;;;8.52;75.19;102299.88;4145649;28;20052;-62
2021/12/15 05:34:21;;;;;;;8.32;6.22;;;;;;;8.52;75.33;102307.63;4151304;28;20041;-58
2021/12/15 05:36:26;;;;;;;8.10;5.97;;;;;;;8.53;75.19;102301.66;4151869;28;20677;-57
2021/12/15 05:38:29;;;;;;;8.38;6.13;;;;;;;8.55;75.09;102301.72;4147817;28;20564;-56
2021/12/15 05:40:34;;;;;;;7.40;5.53;;;;;;;8.51;75.26;102310.16;4146955;28;20038;-56
2021/12/15 05:42:37;;;;;;;7.90;5.68;;;;;;;8.46;75.39;102309.91;4130214;28;20046;-61
2021/12/15 05:44:41;;;;;;;8.05;5.68;;;;;;;8.49;75.07;102311.78;4147271;28;20037;-58
2021/12/15 05:46:44;;;;;;;8.38;6.05;;;;;;;8.49;75.16;102307.47;4147207;28;20439;-60
2021/12/15 05:48:47;;;;;;;6.93;5.35;;;;;;;8.45;75.01;102304.66;4148274;28;20360;-60
2021/12/15 05:50:52;;;;;;;8.00;5.90;;;;;;;8.50;75.26;102316.16;4146011;28;20503;-59
2021/12/15 05:52:58;;;;;;;8.35;5.97;;;;;;;8.47;75.33;102321.16;4147811;28;20033;-57
2021/12/15 05:55:01;;;;;;;11.65;7.00;;;;;;;8.48;75.00;102313.47;4147762;28;20412;-60
2021/12/15 05:57:05;;;;;;;9.13;5.30;;;;;;;8.43;75.24;102304.53;4144988;28;20053;-58
2021/12/15 05:59:09;;;;;;;7.50;5.80;;;;;;;8.46;75.27;102307.31;4148336;28;20034;-59
2021/12/15 06:01:13;;;;;;;8.67;6.23;;;;;;;8.45;75.69;102309.84;4146904;28;20499;-59
2021/12/15 06:03:17;;;;;;;7.30;5.13;;;;;;;8.48;75.22;102304.81;4143784;28;20304;-60
2021/12/15 06:05:20;;;;;;;7.97;6.15;;;;;;;8.42;75.50;102301.88;4139108;28;20533;-61
2021/12/15 06:07:24;;;;;;;7.85;6.13;;;;;;;8.43;75.79;102312.31;4140091;28;20055;-58
2021/12/15 06:09:28;;;;;;;8.18;6.15;;;;;;;8.52;75.48;102298.97;4139467;28;20046;-60
2021/12/15 06:11:32;;;;;;;8.63;6.32;;;;;;;8.49;75.52;102297.13;4139107;28;20050;-61
2021/12/15 06:13:35;;;;;;;8.20;5.95;;;;;;;8.51;75.42;102312.75;4139895;28;20045;-59
2021/12/15 06:15:40;;;;;;;7.65;5.55;;;;;;;8.51;75.73;102312.75;4139149;28;20411;-57
2021/12/15 06:17:43;;;;;;;6.75;5.30;;;;;;;8.53;75.67;102309.44;4139625;28;20523;-59
2021/12/15 06:19:47;;;;;;;9.48;6.60;;;;;;;8.55;75.42;102312.09;4141539;28;20136;-57
2021/12/15 06:21:50;;;;;;;8.40;6.13;;;;;;;8.55;75.19;102312.97;4145410;28;20050;-57
2021/12/15 06:23:53;;;;;;;7.93;5.68;;;;;;;8.55;75.46;102312.97;4145655;28;20065;-58
2021/12/15 06:26:00;;;;;;;8.10;5.68;;;;;;;8.59;75.47;102313.16;4146502;28;20034;-59
2021/12/15 06:28:08;;;;;;;8.07;6.00;;;;;;;8.65;74.98;102314.34;4145481;28;20060;-60
2021/12/15 06:30:12;;;;;;;8.10;5.67;;;;;;;8.67;74.95;102315.34;4141714;28;20380;-59
2021/12/15 06:32:16;;;;;;;9.00;6.53;;;;;;;8.69;74.84;102326.69;4139538;28;20618;-61
2021/12/15 06:34:19;;;;;;;7.88;6.07;;;;;;;8.72;74.71;102319.06;4143982;28;20442;-60
2021/12/15 06:36:23;;;;;;;9.52;6.38;;;;;;;8.69;74.88;102326.69;4145961;28;20053;-59
2021/12/15 06:38:29;;;;;;;9.50;6.72;;;;;;;8.71;74.97;102326.75;4146179;28;20057;-58
2021/12/15 06:40:32;;;;;;;7.38;5.78;;;;;;;8.67;74.95;102325.72;4145591;28;20045;-59
2021/12/15 06:42:39;;;;;;;9.32;6.80;;;;;;;8.69;74.94;102330.97;4145542;28;20041;-60
2021/12/15 06:44:42;;;;;;;8.35;6.03;;;;;;;8.68;75.08;102331.78;4129768;28;20046;-60
2021/12/15 06:58:39;;;;;;;9.45;7.05;;;;;;;8.78;74.81;102330.56;4144634;28;20041;-60
2021/12/15 07:00:46;;;;;;;8.50;6.40;;;;;;;8.74;75.27;102332.97;4141138;28;20507;-61
2021/12/15 07:02:49;;;;;;;11.05;7.75;;;;;;;8.77;75.18;102331.38;4145025;28;20034;-59
2021/12/15 07:04:53;;;;;;;12.18;7.57;;;;;;;8.70;75.38;102328.47;4144240;28;20037;-62
2021/12/15 07:06:56;;;;;;;11.77;7.13;;;;;;;8.72;75.47;102332.03;4145771;28;20109;-57
2021/12/15 07:08:59;;;;;;;10.60;7.38;;;;;;;8.71;75.49;102344.91;4146362;28;20514;-60
2021/12/15 07:11:04;;;;;;;9.02;6.78;;;;;;;8.79;75.84;102324.56;4145806;28;20054;-59
2021/12/15 07:13:08;;;;;;;11.48;7.25;;;;;;;8.72;75.46;102337.22;4146316;28;20046;-61
2021/12/15 07:15:13;;;;;;;9.90;6.97;;;;;;;8.77;75.42;102331.38;4144183;28;20523;-60
2021/12/15 07:17:21;;;;;;;11.27;6.95;;;;;;;8.76;75.54;102343.47;4144825;28;20046;-59
2021/12/15 07:19:31;;;;;;;10.85;7.28;;;;;;;8.74;75.30;102330.38;4130044;28;20101;-58
2021/12/15 07:21:39;;;;;;;10.88;6.88;;;;;;;8.82;75.24;102332.47;4136543;28;20133;-58
2021/12/15 07:23:42;;;;;;;8.93;6.70;;;;;;;8.85;75.08;102337.84;4146760;28;20423;-56
2021/12/15 07:25:48;;;;;;;9.10;7.00;;;;;;;8.98;76.23;102332.47;4143210;28;20042;-51
2021/12/15 07:27:51;;;;;;;10.10;6.05;;;;;;;9.19;77.26;102334.38;4151583;28;20049;-52
2021/12/15 07:29:55;;;;;;;9.38;6.97;;;;;;;9.28;75.23;102345.19;4162034;28;20041;-51
2021/12/15 07:32:00;;;;;;;11.77;6.50;;;;;;;9.34;74.60;102345.50;4140751;28;20116;-54
2021/12/15 07:34:05;;;;;;;9.13;6.65;;;;;;;9.30;74.29;102346.19;4143042;28;20166;-54
2021/12/15 07:36:08;;;;;;;7.72;5.95;;;;;;;9.38;74.83;102350.03;4146021;28;20526;-51
2021/12/15 07:38:11;;;;;;;9.23;6.35;;;;;;;9.33;73.99;102342.84;4129224;28;20130;-54
2021/12/15 07:40:20;;;;;;;8.93;6.50;;;;;;;9.43;73.99;102345.97;4145535;28;20112;-54
2021/12/15 07:42:32;;;;;;;9.27;5.43;;;;;;;9.51;73.60;102353.25;4146184;28;20037;-54
2021/12/15 07:44:36;;;;;;;6.97;5.13;;;;;;;9.41;73.11;102354.50;4146156;28;20042;-55
2021/12/15 07:46:39;;;;;;;8.10;5.75;;;;;;;9.38;73.20;102339.66;4145732;28;20050;-53
2021/12/15 07:48:44;;;;;;;8.15;6.07;;;;;;;9.56;73.53;102347.47;4130056;28;20054;-52
2021/12/15 07:50:51;;;;;;;9.55;6.15;;;;;;;9.56;72.64;102352.66;4130000;28;20039;-52
2021/12/15 07:52:55;;;;;;;7.70;5.80;;;;;;;9.44;72.61;102358.13;4139662;28;20045;-51
2021/12/15 07:54:58;;;;;;;8.07;5.38;;;;;;;9.36;72.88;102359.47;4146305;28;20046;-55
2021/12/15 07:57:03;;;;;;;8.43;5.22;;;;;;;9.44;73.04;102365.91;4146450;28;20351;-52
2021/12/15 07:59:07;;;;;;;8.73;6.20;;;;;;;9.54;73.04;102366.38;4144682;28;20495;-53
2021/12/15 08:01:11;;;;;;;8.20;5.43;;;;;;;9.65;72.93;102370.41;4144695;28;20125;-53
2021/12/15 08:03:16;;;;;;;8.50;5.45;;;;;;;9.63;72.28;102374.63;4145905;28;20065;-56
2021/12/15 08:05:21;;;;;;;;;;;;;;;9.53;72.51;102374.97;4139062;28;20049;-54
2021/12/15 08:07:24;;;;;;;9.60;5.18;;;;;;;9.53;72.26;102373.25;4126687;28;19931;-56
2021/12/15 08:09:27;;;;;;;10.18;5.80;;;;;;;9.55;72.32;102382.03;4144393;28;20100;-53
2021/12/15 08:11:30;;;;;;;7.07;5.32;;;;;;;9.52;72.70;102383.56;4148876;28;20038;-54
2021/12/15 08:13:36;;;;;;;9.45;5.60;;;;;;;9.63;72.25;102386.72;4145771;28;20133;-61
2021/12/15 08:15:40;;;;;;;7.28;5.45;;;;;;;9.70;72.08;102384.50;4148567;28;20065;-60
2021/12/15 08:17:48;;;;;;;7.15;5.22;;;;;;;9.73;71.83;102382.03;4148418;28;20121;-60
2021/12/15 08:19:51;;;;;;;5.80;4.63;;;;;;;9.73;71.44;102392.44;4125610;28;20047;-62
2021/12/15 08:21:56;;;;;;;8.93;4.97;;;;;;;9.75;71.61;102389.91;4158931;28;20052;-59
2021/12/15 08:23:59;;;;;;;10.40;5.72;;;;;;;9.77;71.71;102393.47;4153836;28;20108;-62
2021/12/15 08:26:02;;;;;;;6.10;4.60;;;;;;;9.78;71.63;102388.38;4146080;28;20503;-59
2021/12/15 08:28:07;;;;;;;6.68;4.88;;;;;;;9.75;71.55;102401.22;4121191;28;20061;-58
2021/12/15 08:30:19;;;;;;;6.82;4.53;;;;;;;9.73;72.08;102397.63;4145892;28;20046;-60
2021/12/15 08:32:22;;;;;;;6.00;4.60;;;;;;;9.79;71.50;102394.44;4144053;28;20388;-61
2021/12/15 08:34:25;;;;;;;7.85;4.13;;;;;;;9.90;72.06;102402.75;4148003;28;20388;-63
2021/12/15 08:36:29;;;;;;;5.88;4.13;;;;;;;9.95;71.60;102391.75;4148164;28;20465;-60
2021/12/15 08:38:37;;;;;;;9.52;4.93;;;;;;;9.98;71.64;102398.81;4146414;28;20537;-61
2021/12/15 08:40:42;;;;;;;9.48;4.78;;;;;;;9.90;71.14;102401.06;4148198;28;20052;-63
2021/12/15 08:42:46;;;;;;;7.70;4.93;;;;;;;9.88;71.53;102399.19;4163626;23;20413;-62
2021/12/15 08:44:49;;;;;;;7.03;4.20;;;;;;;9.84;71.91;102405.97;4163996;28;20049;-62
2021/12/15 08:46:53;;;;;;;6.40;4.53;;;;;;;9.73;71.91;102399.34;4161617;28;20052;-63
2021/12/15 08:48:56;;;;;;;8.45;5.03;;;;;;;9.59;72.27;102406.44;4163199;28;20045;-63
2021/12/15 08:51:00;;;;;;;7.25;4.82;;;;;;;9.51;72.75;102400.00;4164235;28;20060;-62
2021/12/15 08:53:05;;;;;;;7.40;4.45;;;;;;;9.48;72.98;102405.91;4164057;28;20043;-60
2021/12/15 08:55:10;;;;;;;6.95;4.63;;;;;;;9.53;72.92;102409.63;4160681;28;20044;-61
2021/12/15 08:57:13;;;;;;;7.63;4.55;;;;;;;9.58;72.95;102407.28;4164431;28;20053;-59
2021/12/15 08:59:18;;;;;;;10.20;4.97;;;;;;;9.66;72.57;102405.94;4163590;28;20454;-57
2021/12/15 09:01:22;;;;;;;9.55;5.32;;;;;;;9.67;72.43;102402.53;4162565;28;20128;-59
2021/12/15 09:03:26;;;;;;;;;;;;;;;9.58;73.11;102407.28;4163982;28;20037;-59
2021/12/15 09:05:30;;;;;;;6.75;5.32;;;;;;;9.59;73.14;102403.84;4164143;28;19925;-61
2021/12/15 09:07:33;;;;;;;10.30;5.40;;;;;;;9.66;73.16;102416.31;4162043;28;20041;-59
2021/12/15 09:09:37;;;;;;;8.70;6.18;;;;;;;9.66;73.37;102415.44;4162098;28;20406;-59
2021/12/15 09:11:42;;;;;;;8.07;5.85;;;;;;;9.70;73.46;102420.84;4156902;28;20060;-61
2021/12/15 09:13:49;;;;;;;9.60;6.25;;;;;;;9.72;73.05;102416.59;4163148;28;20042;-62
2021/12/15 09:15:53;;;;;;;8.35;6.35;;;;;;;9.75;73.35;102411.59;4163412;28;20462;-60
2021/12/15 09:17:57;;;;;;;11.07;6.50;;;;;;;9.73;74.19;102408.00;4162087;28;20064;-60
2021/12/15 09:20:00;;;;;;;9.80;6.38;;;;;;;9.73;74.39;102408.00;4163456;28;20068;-61
2021/12/15 09:22:04;;;;;;;11.45;7.18;;;;;;;9.82;74.06;102409.28;4162102;28;20147;-60
2021/12/15 09:24:08;;;;;;;9.82;7.10;;;;;;;9.86;74.24;102404.31;4162821;28;20095;-57
2021/12/15 09:26:12;;;;;;;9.63;7.43;;;;;;;9.95;74.34;102403.88;4164072;28;20041;-59
2021/12/15 09:28:19;;;;;;;11.80;7.47;;;;;;;10.08;73.35;102403.63;4162154;28;20034;-59
2021/12/15 09:30:22;;;;;;;8.38;6.55;;;;;;;10.11;73.58;102406.38;4163451;28;20065;-59
2021/12/15 09:32:25;;;;;;;9.32;6.82;;;;;;;10.14;73.04;102403.03;4160311;28;20152;-58
2021/12/15 09:34:30;;;;;;;11.35;6.43;;;;;;;10.17;73.24;102397.09;4143457;28;20042;-59
2021/12/15 09:36:34;;;;;;;;;;;;;;;10.10;73.37;102401.09;4164916;28;20044;-59
2021/12/15 09:38:37;;;;;;;8.65;6.00;;;;;;;10.11;73.30;102387.28;4146212;28;19928;-63
2021/12/15 09:40:42;;;;;;;;;;;;;;;10.05;72.66;102411.28;4164738;28;20052;-59
2021/12/15 09:42:46;;;;;;;8.02;6.18;;;;;;;10.16;73.25;102397.91;4164199;28;19943;-65
2021/12/15 09:44:54;;;;;;;10.38;6.10;;;;;;;10.25;72.48;102404.44;4142901;28;20129;-58
2021/12/15 09:47:12;;;;;;;8.95;6.63;;;;;;;10.34;71.97;102408.28;4162351;28;20068;-56
2021/12/15 09:57:16;;;;;;;11.32;5.68;;;;;;;10.50;71.82;102399.50;4163549;28;20041;-63
2021/12/15 10:02:08;;;;;;;9.75;5.70;;;;;;;10.62;71.33;102400.94;4160920;28;20061;-59
2021/12/15 10:04:24;;;;;;;9.88;5.88;;;;;;;10.58;70.68;102400.75;4160521;28;20037;-61
2021/12/15 10:06:44;;;;;;;11.23;6.15;;;;;;;10.52;71.33;102397.88;4156940;28;21266;-59
2021/12/15 10:11:21;;;;;;;9.10;6.03;;;;;;;10.63;71.38;102400.13;4160015;28;20036;-60
2021/12/15 10:18:22;;;;;;;9.02;6.53;;;;;;;10.87;70.11;102401.16;4160026;28;20044;-55
2021/12/15 10:20:28;;;;;;;7.93;6.00;;;;;;;10.87;70.93;102395.97;4160017;28;20037;-57
2021/12/15 10:22:38;;;;;;;9.98;5.70;;;;;;;10.90;70.62;102398.72;4161516;28;20063;-59
2021/12/15 10:24:48;;;;;;;9.52;6.45;;;;;;;10.91;70.45;102396.16;4161241;28;20128;-58
2021/12/15 10:26:55;;;;;;;13.02;9.20;;;;;;;10.86;70.36;102397.66;4158194;28;20077;-58
2021/12/15 10:29:06;;;;;;;10.80;7.32;;;;;;;10.92;70.99;102395.34;4158398;28;20569;-60
2021/12/15 10:31:12;;;;;;;12.20;8.48;;;;;;;10.94;70.51;102396.31;4158988;28;20063;-56
2021/12/15 10:33:22;;;;;;;8.80;6.45;;;;;;;11.03;70.50;102397.53;4160250;28;20037;-59
2021/12/15 10:35:28;;;;;;;10.05;6.47;;;;;;;11.12;69.88;102398.81;4161751;28;20037;-59
2021/12/15 10:37:32;;;;;;;9.52;7.10;;;;;;;11.21;70.46;102392.22;4161846;28;20041;-58
2021/12/15 10:39:35;;;;;;;9.70;6.57;;;;;;;11.23;69.79;102393.16;4161709;28;20033;-59
2021/12/15 10:41:42;;;;;;;8.77;6.35;;;;;;;11.26;69.07;102390.72;4159179;28;20053;-61
2021/12/15 10:43:48;;;;;;;12.00;7.22;;;;;;;11.23;69.38;102387.97;4161477;28;20058;-60